createdAt,value
2023-01-25T00:01:24.838Z,7.37
2023-01-25T00:03:53.925Z,7.40
2023-01-25T00:06:22.549Z,7.17
2023-01-25T00:08:51.328Z,7.33
2023-01-25T00:11:20.470Z,7.63
2023-01-25T00:13:49.044Z,5.90
2023-01-25T00:16:18.932Z,7.47
2023-01-25T00:18:47.575Z,8.27
2023-01-25T00:21:17.410Z,6.43
2023-01-25T00:23:46.162Z,7.30
2023-01-25T00:26:14.750Z,7.03
2023-01-25T00:28:43.642Z,7.17
2023-01-25T00:31:27.618Z,6.20
2023-01-25T00:34:02.949Z,7.60
2023-01-25T00:36:42.657Z,6.77
2023-01-25T00:39:14.688Z,7.33
2023-01-25T00:41:44.217Z,6.93
2023-01-25T00:44:12.831Z,6.43
2023-01-25T00:46:42.815Z,6.83
2023-01-25T00:49:21.943Z,6.53
2023-01-25T00:51:50.894Z,7.00
2023-01-25T00:54:20.365Z,5.93
2023-01-25T00:56:48.981Z,7.17
2023-01-25T00:59:17.852Z,6.77
2023-01-25T01:01:47.927Z,6.47
2023-01-25T01:04:17.138Z,6.50
2023-01-25T01:06:45.962Z,5.77
2023-01-25T01:09:17.797Z,5.90
2023-01-25T01:11:46.579Z,5.73
2023-01-25T01:14:15.730Z,5.73
2023-01-25T01:16:44.476Z,6.50
2023-01-25T01:19:14.879Z,6.23
2023-01-25T01:21:43.592Z,6.47
2023-01-25T01:24:12.837Z,5.90
2023-01-25T01:26:41.365Z,6.17
2023-01-25T01:29:10.040Z,6.70
2023-01-25T01:31:39.050Z,6.07
2023-01-25T01:34:21.420Z,6.70
2023-01-25T01:36:49.949Z,7.13
2023-01-25T01:39:18.879Z,6.87
2023-01-25T01:41:47.583Z,6.30
2023-01-25T01:44:19.014Z,6.07
2023-01-25T01:46:56.265Z,6.00
2023-01-25T01:49:33.316Z,6.70
2023-01-25T01:52:18.034Z,6.47
2023-01-25T01:54:50.892Z,5.97
2023-01-25T01:57:23.575Z,7.20
2023-01-25T01:59:57.198Z,6.60
2023-01-25T02:02:27.795Z,6.93
2023-01-25T02:05:02.281Z,6.87
2023-01-25T02:07:35.290Z,6.03
2023-01-25T02:10:06.588Z,7.90
2023-01-25T02:12:36.072Z,6.77
2023-01-25T02:15:05.370Z,7.13
2023-01-25T02:17:36.947Z,7.33
2023-01-25T02:20:14.280Z,6.67
2023-01-25T02:22:54.953Z,6.17
2023-01-25T02:25:24.956Z,6.77
2023-01-25T02:27:57.653Z,6.37
2023-01-25T02:30:27.691Z,6.20
2023-01-25T02:32:56.220Z,6.43
2023-01-25T02:35:37.442Z,6.77
2023-01-25T02:38:07.987Z,6.57
2023-01-25T02:40:45.871Z,6.70
2023-01-25T02:43:15.913Z,7.03
2023-01-25T02:45:46.679Z,7.23
2023-01-25T02:48:15.174Z,6.77
2023-01-25T02:50:43.670Z,6.60
2023-01-25T02:53:13.409Z,6.33
2023-01-25T02:55:43.328Z,6.20
2023-01-25T02:58:11.824Z,5.87
2023-01-25T03:00:41.943Z,5.67
2023-01-25T03:03:10.488Z,5.70
2023-01-25T03:05:39.058Z,6.00
2023-01-25T03:08:07.630Z,5.47
2023-01-25T03:10:36.281Z,6.27
2023-01-25T03:13:06.373Z,6.53
2023-01-25T03:15:35.085Z,6.73
2023-01-25T03:18:04.572Z,7.07
2023-01-25T03:20:33.307Z,7.83
2023-01-25T03:23:01.880Z,7.37
2023-01-25T03:25:30.404Z,7.60
2023-01-25T03:28:11.988Z,6.93
2023-01-25T03:30:41.339Z,5.97
2023-01-25T03:33:10.068Z,7.17
2023-01-25T03:35:38.725Z,7.20
2023-01-25T03:38:07.226Z,6.57
2023-01-25T03:40:35.875Z,6.20
2023-01-25T03:43:04.456Z,6.57
2023-01-25T03:45:34.443Z,6.00
2023-01-25T03:48:03.324Z,7.33
2023-01-25T03:50:31.999Z,6.63
2023-01-25T03:53:18.176Z,6.50
2023-01-25T03:55:50.388Z,5.93
2023-01-25T03:58:21.412Z,6.83
2023-01-25T04:00:51.515Z,6.37
2023-01-25T04:03:21.737Z,6.53
2023-01-25T04:05:51.041Z,7.43
2023-01-25T04:08:20.133Z,6.30
2023-01-25T04:10:53.852Z,6.87
2023-01-25T04:13:23.592Z,6.93
2023-01-25T04:15:56.008Z,7.10
2023-01-25T04:18:44.387Z,7.00
2023-01-25T04:21:13.062Z,6.20
2023-01-25T04:23:41.704Z,6.17
2023-01-25T04:26:17.444Z,6.27
2023-01-25T04:28:52.748Z,7.10
2023-01-25T04:31:22.809Z,6.33
2023-01-25T04:33:51.774Z,6.63
2023-01-25T04:36:21.797Z,6.63
2023-01-25T04:38:50.326Z,7.20
2023-01-25T04:41:18.904Z,6.27
2023-01-25T04:43:47.637Z,6.57
2023-01-25T04:46:17.493Z,6.53
2023-01-25T04:48:47.799Z,6.70
2023-01-25T04:51:18.677Z,5.90
2023-01-25T04:53:47.369Z,6.23
2023-01-25T04:56:16.084Z,6.30
2023-01-25T04:58:50.311Z,5.40
2023-01-25T05:01:22.905Z,6.07
2023-01-25T05:03:58.052Z,6.53
2023-01-25T05:06:35.262Z,5.47
2023-01-25T05:09:04.102Z,6.17
2023-01-25T05:11:34.543Z,5.93
2023-01-25T05:14:09.441Z,5.70
2023-01-25T05:16:38.231Z,5.23
2023-01-25T05:19:10.657Z,5.83
2023-01-25T05:21:59.905Z,5.37
2023-01-25T05:24:42.850Z,6.03
2023-01-25T05:27:14.335Z,5.43
2023-01-25T05:29:52.062Z,5.63
2023-01-25T05:32:24.391Z,5.10
2023-01-25T05:34:55.300Z,5.57
2023-01-25T05:37:24.387Z,5.50
2023-01-25T05:40:04.166Z,6.17
2023-01-25T05:42:37.581Z,9.80
2023-01-25T05:45:11.011Z,10.80
2023-01-25T05:47:41.412Z,7.60
2023-01-25T05:50:12.668Z,5.73
2023-01-25T05:53:10.731Z,5.47
2023-01-25T05:55:40.940Z,5.10
2023-01-25T05:58:14.198Z,4.90
2023-01-25T06:00:42.886Z,5.07
2023-01-25T06:03:16.841Z,4.67
2023-01-25T06:05:47.356Z,4.20
2023-01-25T06:08:15.771Z,4.80
2023-01-25T06:10:48.350Z,4.33
2023-01-25T06:13:16.895Z,4.40
2023-01-25T06:15:52.825Z,4.60
2023-01-25T06:18:47.133Z,4.93
2023-01-25T06:21:37.202Z,5.23
2023-01-25T06:24:06.104Z,4.23
2023-01-25T06:26:34.599Z,5.23
2023-01-25T06:29:03.086Z,4.57
2023-01-25T06:31:31.578Z,4.87
2023-01-25T06:34:04.559Z,4.83
2023-01-25T06:36:35.234Z,4.53
2023-01-25T06:39:04.071Z,4.77
2023-01-25T06:41:32.544Z,5.03
2023-01-25T06:44:01.073Z,4.73
2023-01-25T06:46:29.611Z,5.00
2023-01-25T06:48:58.164Z,4.33
2023-01-25T06:51:26.636Z,5.40
2023-01-25T06:53:56.670Z,5.27
2023-01-25T06:56:26.140Z,5.97
2023-01-25T06:58:54.719Z,5.57
2023-01-25T07:01:27.564Z,5.03
2023-01-25T07:03:58.810Z,3.93
2023-01-25T07:06:32.317Z,4.73
2023-01-25T07:09:05.580Z,4.93
2023-01-25T07:11:34.202Z,4.80
2023-01-25T07:14:02.737Z,5.60
2023-01-25T07:16:36.772Z,18.00
2023-01-25T07:19:05.661Z,7.30
2023-01-25T07:21:34.480Z,5.43
2023-01-25T07:24:06.430Z,6.80
2023-01-25T07:26:36.090Z,6.53
2023-01-25T07:29:04.622Z,5.87
2023-01-25T07:31:33.340Z,8.43
2023-01-25T07:34:01.807Z,6.87
2023-01-25T07:36:30.392Z,9.10
2023-01-25T07:38:59.763Z,6.33
2023-01-25T07:41:29.677Z,9.90
2023-01-25T07:43:58.118Z,10.20
2023-01-25T07:46:40.033Z,9.83
2023-01-25T07:49:08.527Z,10.33
2023-01-25T07:51:36.934Z,10.57
2023-01-25T07:54:06.900Z,8.07
2023-01-25T07:56:40.728Z,8.50
2023-01-25T07:59:10.960Z,8.13
2023-01-25T08:01:41.301Z,8.57
2023-01-25T08:04:10.504Z,7.80
2023-01-25T08:06:40.169Z,8.07
2023-01-25T08:09:10.940Z,10.00
2023-01-25T08:11:41.329Z,10.63
2023-01-25T08:14:09.849Z,9.03
2023-01-25T08:16:38.703Z,8.43
2023-01-25T08:19:07.606Z,6.50
2023-01-25T08:21:36.503Z,6.97
2023-01-25T08:24:07.695Z,6.13
2023-01-25T08:26:37.082Z,5.60
2023-01-25T08:29:07.724Z,5.00
2023-01-25T08:31:37.286Z,5.10
2023-01-25T08:34:07.047Z,5.68
2023-01-25T08:36:35.828Z,4.60
2023-01-25T08:39:06.894Z,5.00
2023-01-25T08:41:37.160Z,4.33
2023-01-25T08:44:07.397Z,5.07
2023-01-25T08:46:36.134Z,6.47
2023-01-25T08:49:05.695Z,5.70
2023-01-25T08:51:34.861Z,6.03
2023-01-25T08:54:04.930Z,6.63
2023-01-25T08:56:34.939Z,5.63
2023-01-25T08:59:03.541Z,6.23
2023-01-25T09:01:33.879Z,5.57
2023-01-25T09:04:04.486Z,5.07
2023-01-25T09:06:35.053Z,6.27
2023-01-25T09:09:04.884Z,5.47
2023-01-25T09:11:37.294Z,5.47
2023-01-25T09:14:06.227Z,5.37
2023-01-25T09:16:36.181Z,5.57
2023-01-25T09:19:06.797Z,5.53
2023-01-25T09:21:37.247Z,6.23
2023-01-25T09:24:08.340Z,5.70
2023-01-25T09:26:40.016Z,6.50
2023-01-25T09:29:09.334Z,6.23
2023-01-25T09:31:44.099Z,6.43
2023-01-25T09:34:26.041Z,7.50
2023-01-25T09:36:54.627Z,7.43
2023-01-25T09:39:23.179Z,6.97
2023-01-25T09:42:22.536Z,7.13
2023-01-25T09:45:14.500Z,8.50
2023-01-25T09:47:49.036Z,7.17
2023-01-25T09:50:34.437Z,7.83
2023-01-25T09:53:32.604Z,6.87
2023-01-25T09:56:05.016Z,7.57
2023-01-25T09:58:37.100Z,7.30
2023-01-25T10:01:29.664Z,7.87
2023-01-25T10:04:16.614Z,8.30
2023-01-25T10:06:58.955Z,7.37
2023-01-25T10:09:43.935Z,5.63
2023-01-25T10:12:20.612Z,7.23
2023-01-25T10:14:50.015Z,8.43
2023-01-25T10:17:31.348Z,8.13
2023-01-25T10:20:16.610Z,7.53
2023-01-25T10:22:51.528Z,6.67
2023-01-25T10:25:34.507Z,7.23
2023-01-25T10:28:16.641Z,7.53
2023-01-25T10:30:54.841Z,7.00
2023-01-25T10:33:23.602Z,7.87
2023-01-25T10:35:53.929Z,6.73
2023-01-25T10:38:30.790Z,6.20
2023-01-25T10:41:03.750Z,5.90
2023-01-25T10:43:33.362Z,7.17
2023-01-25T10:46:03.288Z,6.50
2023-01-25T10:48:44.742Z,6.90
2023-01-25T10:51:35.540Z,5.93
2023-01-25T10:54:05.381Z,6.43
2023-01-25T10:56:35.853Z,5.73
2023-01-25T10:59:10.572Z,5.57
2023-01-25T11:01:39.637Z,7.03
2023-01-25T11:04:25.903Z,7.30
2023-01-25T11:06:55.814Z,6.50
2023-01-25T11:09:36.538Z,6.40
2023-01-25T11:12:07.543Z,6.40
2023-01-25T11:14:36.042Z,6.13
2023-01-25T11:17:07.492Z,7.10
2023-01-25T11:19:37.615Z,6.70
2023-01-25T11:22:22.159Z,7.13
2023-01-25T11:24:50.852Z,6.43
2023-01-25T11:27:21.669Z,7.47
2023-01-25T11:30:10.547Z,6.27
2023-01-25T11:32:41.256Z,7.27
2023-01-25T11:35:15.322Z,6.07
2023-01-25T11:38:03.705Z,7.37
2023-01-25T11:40:40.209Z,6.83
2023-01-25T11:43:21.461Z,6.87
2023-01-25T11:46:14.376Z,6.90
2023-01-25T11:49:04.634Z,6.30
2023-01-25T11:51:37.645Z,6.90
2023-01-25T11:54:32.847Z,6.50
2023-01-25T11:57:09.973Z,6.20
2023-01-25T11:59:55.035Z,6.43
2023-01-25T12:02:55.560Z,7.40
2023-01-25T12:05:34.940Z,5.83
2023-01-25T12:08:19.304Z,6.07
2023-01-25T12:10:58.227Z,5.83
2023-01-25T12:13:35.440Z,6.23
2023-01-25T12:16:20.872Z,6.27
2023-01-25T12:19:07.180Z,6.07
2023-01-25T12:21:50.389Z,6.50
2023-01-25T12:24:37.744Z,6.00
2023-01-25T12:27:19.680Z,6.00
2023-01-25T12:29:52.284Z,6.37
2023-01-25T12:32:26.818Z,6.90
2023-01-25T12:35:22.348Z,6.33
2023-01-25T12:37:54.304Z,6.23
2023-01-25T12:40:31.333Z,5.87
2023-01-25T12:43:01.796Z,6.60
2023-01-25T12:45:34.600Z,6.93
2023-01-25T12:48:11.394Z,6.43
2023-01-25T12:50:43.240Z,6.77
2023-01-25T12:53:19.383Z,7.60
2023-01-25T12:55:49.013Z,8.20
2023-01-25T12:58:37.050Z,7.17
2023-01-25T13:01:13.886Z,6.80
2023-01-25T13:03:58.125Z,7.87
2023-01-25T13:06:40.151Z,7.57
2023-01-25T13:09:15.438Z,6.50
2023-01-25T13:11:46.565Z,6.47
2023-01-25T13:14:29.739Z,7.77
2023-01-25T13:17:22.632Z,7.23
2023-01-25T13:19:53.604Z,6.20
2023-01-25T13:22:58.893Z,6.80
2023-01-25T13:25:28.115Z,6.17
2023-01-25T13:28:34.890Z,7.47
2023-01-25T13:31:05.038Z,7.57
2023-01-25T13:33:35.896Z,5.93
2023-01-25T13:36:43.820Z,6.80
2023-01-25T13:39:43.376Z,6.73
2023-01-25T13:42:26.161Z,8.63
2023-01-25T13:44:57.233Z,9.27
2023-01-25T13:47:30.771Z,7.77
2023-01-25T13:50:03.793Z,8.97
2023-01-25T13:52:32.526Z,7.83
2023-01-25T13:55:01.260Z,6.53
2023-01-25T13:57:31.721Z,7.27
2023-01-25T14:00:10.128Z,8.00
2023-01-25T14:02:42.665Z,7.00
2023-01-25T14:05:20.808Z,6.13
2023-01-25T14:07:51.882Z,6.83
2023-01-25T14:10:24.349Z,6.47
2023-01-25T14:12:54.464Z,7.13
2023-01-25T14:15:25.843Z,6.40
2023-01-25T14:18:19.177Z,6.17
2023-01-25T14:20:49.374Z,6.77
2023-01-25T14:23:26.489Z,5.73
2023-01-25T14:25:56.147Z,5.50
2023-01-25T14:28:24.715Z,6.10
2023-01-25T14:30:55.032Z,5.90
2023-01-25T14:33:28.837Z,5.57
2023-01-25T14:36:11.902Z,5.47
2023-01-25T14:38:51.546Z,6.23
2023-01-25T14:41:22.983Z,6.73
2023-01-25T14:43:54.179Z,6.53
2023-01-25T14:46:25.336Z,7.53
2023-01-25T14:49:08.491Z,8.10
2023-01-25T14:51:42.675Z,6.87
2023-01-25T14:54:19.145Z,6.80
2023-01-25T14:56:50.109Z,7.77
2023-01-25T14:59:30.896Z,7.80
2023-01-25T15:02:02.981Z,6.70
2023-01-25T15:04:35.415Z,7.30
2023-01-25T15:07:16.810Z,7.10
2023-01-25T15:10:03.685Z,7.63
2023-01-25T15:12:34.161Z,8.07
2023-01-25T15:15:02.957Z,7.40
2023-01-25T15:17:40.968Z,7.20
2023-01-25T15:23:15.591Z,8.23
2023-01-25T15:25:52.158Z,7.50
2023-01-25T15:28:20.738Z,6.53
2023-01-25T15:30:49.478Z,7.93
2023-01-25T15:33:22.272Z,8.70
2023-01-25T15:35:51.731Z,8.90
2023-01-25T15:38:22.122Z,8.37
2023-01-25T15:40:50.810Z,9.30
2023-01-25T15:43:21.143Z,8.50
2023-01-25T15:45:52.017Z,8.03
2023-01-25T15:48:27.137Z,8.30
2023-01-25T15:50:56.743Z,8.47
2023-01-25T15:53:26.899Z,9.23
2023-01-25T15:55:59.334Z,8.00
2023-01-25T15:58:30.474Z,8.57
2023-01-25T16:01:00.370Z,8.63
2023-01-25T16:03:29.249Z,8.03
2023-01-25T16:06:00.016Z,9.07
2023-01-25T16:08:30.103Z,8.67
2023-01-25T16:10:58.708Z,8.37
2023-01-25T16:13:27.274Z,8.77
2023-01-25T16:15:58.030Z,8.57
2023-01-25T16:18:26.556Z,10.17
2023-01-25T16:20:54.951Z,11.10
2023-01-25T16:23:23.555Z,12.40
2023-01-25T16:25:53.410Z,11.97
2023-01-25T16:28:21.852Z,10.87
2023-01-25T16:30:50.433Z,10.10
2023-01-25T16:33:20.903Z,8.97
2023-01-25T16:35:57.684Z,9.50
2023-01-25T16:38:26.212Z,7.70
2023-01-25T16:40:58.124Z,7.20
2023-01-25T16:43:31.695Z,7.13
2023-01-25T16:46:06.730Z,6.57
2023-01-25T16:48:35.287Z,6.90
2023-01-25T16:51:04.101Z,5.17
2023-01-25T16:53:32.702Z,6.57
2023-01-25T16:56:02.663Z,6.37
2023-01-25T16:58:32.277Z,6.50
2023-01-25T17:01:00.985Z,6.30
2023-01-25T17:03:29.877Z,6.47
2023-01-25T17:05:58.408Z,6.10
2023-01-25T17:08:26.923Z,6.43
2023-01-25T17:10:57.539Z,7.17
2023-01-25T17:13:27.529Z,6.77
2023-01-25T17:15:57.446Z,7.13
2023-01-25T17:18:25.981Z,6.57
2023-01-25T17:20:59.313Z,7.03
2023-01-25T17:23:29.170Z,6.97
2023-01-25T17:25:57.707Z,6.80
2023-01-25T17:28:28.611Z,6.70
2023-01-25T17:30:57.330Z,6.27
2023-01-25T17:33:26.047Z,6.03
2023-01-25T17:35:58.495Z,6.03
2023-01-25T17:38:27.259Z,6.23
2023-01-25T17:40:56.048Z,6.43
2023-01-25T17:43:24.668Z,6.07
2023-01-25T17:45:54.598Z,5.67
2023-01-25T17:48:23.263Z,6.47
2023-01-25T17:51:01.737Z,5.90
2023-01-25T17:53:30.542Z,6.20
2023-01-25T17:56:03.467Z,5.87
2023-01-25T17:58:32.813Z,6.07
2023-01-25T18:01:13.571Z,6.60
2023-01-25T18:03:43.346Z,6.10
2023-01-25T18:06:14.130Z,8.45
2023-01-25T18:08:43.655Z,6.83
2023-01-25T18:11:15.522Z,6.30
2023-01-25T18:13:46.395Z,6.80
2023-01-25T18:16:17.669Z,6.40
2023-01-25T18:18:47.487Z,5.90
2023-01-25T18:21:22.230Z,5.70
2023-01-25T18:23:51.208Z,6.13
2023-01-25T18:26:22.181Z,6.17
2023-01-25T18:28:52.154Z,6.23
2023-01-25T18:31:22.612Z,6.10
2023-01-25T18:33:51.274Z,7.23
2023-01-25T18:36:20.460Z,5.87
2023-01-25T18:38:49.084Z,6.20
2023-01-25T18:41:17.625Z,7.23
2023-01-25T18:43:46.205Z,6.90
2023-01-25T18:46:14.721Z,6.70
2023-01-25T18:48:47.382Z,8.13
2023-01-25T18:51:18.063Z,6.97
2023-01-25T18:53:47.840Z,6.67
2023-01-25T18:56:19.141Z,6.93
2023-01-25T18:58:48.416Z,6.83
2023-01-25T19:01:18.853Z,6.57
2023-01-25T19:03:49.899Z,6.27
2023-01-25T19:06:20.223Z,5.83
2023-01-25T19:08:53.284Z,6.90
2023-01-25T19:11:25.303Z,5.67
2023-01-25T19:13:53.860Z,5.97
2023-01-25T19:16:24.551Z,6.07
2023-01-25T19:18:56.195Z,5.40
2023-01-25T19:21:26.193Z,5.60
2023-01-25T19:23:56.209Z,5.87
2023-01-25T19:26:26.419Z,4.97
2023-01-25T19:28:55.719Z,5.90
2023-01-25T19:31:26.054Z,6.00
2023-01-25T19:33:59.811Z,6.00
2023-01-25T19:36:30.467Z,5.63
2023-01-25T19:38:59.123Z,5.63
2023-01-25T19:41:29.621Z,5.33
2023-01-25T19:43:59.426Z,7.13
2023-01-25T19:46:30.317Z,6.83
2023-01-25T19:49:02.131Z,6.03
2023-01-25T19:51:32.718Z,6.37
2023-01-25T19:54:03.563Z,6.77
2023-01-25T19:56:34.067Z,6.33
2023-01-25T19:59:04.557Z,5.90
2023-01-25T20:01:33.360Z,5.67
2023-01-25T20:04:04.526Z,6.80
2023-01-25T20:06:33.757Z,5.90
2023-01-25T20:09:02.295Z,5.23
2023-01-25T20:11:32.621Z,5.30
2023-01-25T20:14:03.209Z,6.10
2023-01-25T20:16:33.003Z,5.70
2023-01-25T20:19:03.300Z,5.30
2023-01-25T20:21:33.790Z,5.47
2023-01-25T20:24:05.959Z,5.63
2023-01-25T20:26:36.840Z,5.73
2023-01-25T20:29:05.834Z,6.03
2023-01-25T20:31:36.322Z,6.17
2023-01-25T20:34:09.485Z,6.13
2023-01-25T20:36:38.682Z,5.40
2023-01-25T20:39:08.283Z,6.10
2023-01-25T20:41:37.117Z,5.47
2023-01-25T20:44:08.782Z,6.03
2023-01-25T20:46:38.956Z,5.90
2023-01-25T20:49:11.794Z,5.57
2023-01-25T20:51:40.285Z,6.23
2023-01-25T20:54:08.721Z,6.97
2023-01-25T20:56:37.297Z,7.40
2023-01-25T20:59:06.273Z,6.43
2023-01-25T21:01:37.353Z,6.37
2023-01-25T21:04:09.785Z,7.17
2023-01-25T21:06:38.892Z,7.27
2023-01-25T21:09:07.659Z,6.97
2023-01-25T21:11:36.388Z,6.73
2023-01-25T21:14:05.072Z,6.13
2023-01-25T21:16:33.938Z,6.20
2023-01-25T21:19:07.260Z,6.60
2023-01-25T21:21:38.663Z,5.90
2023-01-25T21:24:08.298Z,5.97
2023-01-25T21:26:38.574Z,6.87
2023-01-25T21:29:08.188Z,6.67
2023-01-25T21:31:39.272Z,6.23
2023-01-25T21:34:09.346Z,6.50
2023-01-25T21:36:39.594Z,6.03
2023-01-25T21:39:08.386Z,6.10
2023-01-25T21:41:36.884Z,6.13
2023-01-25T21:44:22.770Z,6.30
2023-01-25T21:49:57.409Z,5.83
2023-01-25T21:52:27.346Z,6.13
2023-01-25T21:54:55.807Z,6.43
2023-01-25T21:57:24.411Z,7.27
2023-01-25T21:59:54.330Z,5.90
2023-01-25T22:02:23.057Z,6.73
2023-01-25T22:04:51.765Z,6.40
2023-01-25T22:07:20.435Z,6.03
2023-01-25T22:09:50.579Z,6.77
2023-01-25T22:12:19.312Z,6.17
2023-01-25T22:14:47.808Z,6.57
2023-01-25T22:17:16.363Z,5.10
2023-01-25T22:19:44.880Z,6.40
2023-01-25T22:22:13.385Z,6.20
2023-01-25T22:24:41.851Z,6.20
2023-01-25T22:27:32.092Z,5.83
2023-01-25T22:30:00.670Z,6.10
2023-01-25T22:32:29.228Z,6.33
2023-01-25T22:34:57.782Z,5.93
2023-01-25T22:37:27.265Z,5.83
2023-01-25T22:39:58.612Z,5.00
2023-01-25T22:42:28.569Z,6.50
2023-01-25T22:44:57.165Z,6.43
2023-01-25T22:47:25.636Z,7.40
2023-01-25T22:49:54.111Z,7.83
2023-01-25T22:52:23.452Z,7.37
2023-01-25T22:54:52.011Z,6.80
2023-01-25T22:57:20.532Z,6.50
2023-01-25T22:59:50.418Z,6.40
2023-01-25T23:02:18.912Z,5.67
2023-01-25T23:04:47.499Z,5.53
2023-01-25T23:07:18.795Z,6.07
2023-01-25T23:09:51.701Z,7.77
2023-01-25T23:12:20.940Z,7.13
2023-01-25T23:14:54.230Z,6.83
2023-01-25T23:17:42.741Z,7.13
2023-01-25T23:20:13.539Z,9.40
2023-01-25T23:22:42.359Z,9.40
2023-01-25T23:25:12.256Z,9.50
2023-01-25T23:27:40.705Z,11.17
2023-01-25T23:30:12.559Z,8.80
2023-01-25T23:32:49.349Z,7.30
2023-01-25T23:35:18.975Z,6.60
2023-01-25T23:37:48.704Z,7.90
2023-01-25T23:40:18.008Z,7.63
2023-01-25T23:42:46.564Z,8.50
2023-01-25T23:45:16.691Z,8.20
2023-01-25T23:47:45.221Z,8.60
2023-01-25T23:50:13.901Z,7.93
2023-01-25T23:52:43.512Z,7.67
2023-01-25T23:55:12.335Z,8.37
2023-01-25T23:57:40.903Z,7.83
